Terminal Aerodrome Forecast
Issued by NWS Grand Junction, CO

Home | Current Version | Previous Version | Text Only | Print | Product List | Glossary On
Versions: 1 2 3 4 5 6 7 8 9 10 11 12 13 14 15 16
000
FTUS45 KGJT 242114 AAD
TAFGJT
TAF AMD
KGJT 242114Z 2421/2518 29012KT P6SM BKN110
      TEMPO 2421/2422 5SM -SN BR SCT030 OVC070
     FM250000 29011KT P6SM SCT140
     FM250200 33005KT P6SM SCT200
     FM250500 VRB03KT P6SM FEW200=

USA.gov is the U.S. government's official web portal to all federal, state and local government web resources and services.